createdAt,value
2023-02-11T00:00:45.880Z,49.70
2023-02-11T00:03:13.195Z,48.57
2023-02-11T00:05:40.741Z,44.50
2023-02-11T00:08:08.061Z,51.43
2023-02-11T00:10:35.293Z,46.83
2023-02-11T00:13:02.565Z,48.73
2023-02-11T00:15:29.799Z,55.27
2023-02-11T00:17:59.106Z,47.67
2023-02-11T00:20:26.387Z,43.83
2023-02-11T00:22:53.643Z,48.20
2023-02-11T00:25:21.343Z,52.00
2023-02-11T00:27:48.856Z,51.63
2023-02-11T00:30:16.559Z,51.70
2023-02-11T00:32:43.745Z,54.03
2023-02-11T00:35:11.045Z,49.53
2023-02-11T00:37:38.314Z,46.20
2023-02-11T00:40:06.868Z,43.23
2023-02-11T00:42:35.733Z,42.47
2023-02-11T00:45:03.628Z,45.93
2023-02-11T00:47:30.806Z,46.17
2023-02-11T00:49:57.984Z,43.43
2023-02-11T00:52:25.194Z,45.43
2023-02-11T00:54:52.396Z,46.07
2023-02-11T00:57:19.556Z,47.00
2023-02-11T00:59:46.857Z,44.53
2023-02-11T01:02:14.076Z,50.83
2023-02-11T01:04:41.278Z,51.83
2023-02-11T01:07:08.671Z,46.20
2023-02-11T01:09:38.896Z,46.60
2023-02-11T01:12:06.310Z,37.33
2023-02-11T01:14:33.719Z,43.73
2023-02-11T01:17:00.982Z,41.27
2023-02-11T01:19:28.206Z,45.60
2023-02-11T01:21:55.385Z,45.40
2023-02-11T01:24:22.573Z,43.10
2023-02-11T01:26:52.775Z,50.33
2023-02-11T01:29:20.326Z,47.10
2023-02-11T01:31:47.642Z,44.87
2023-02-11T01:34:15.226Z,37.60
2023-02-11T01:36:42.495Z,42.73
2023-02-11T01:39:09.758Z,41.23
2023-02-11T01:41:37.383Z,55.60
2023-02-11T01:44:43.361Z,43.47
2023-02-11T01:47:10.864Z,47.70
2023-02-11T01:49:43.708Z,52.03
2023-02-11T01:52:13.740Z,43.77
2023-02-11T01:55:01.367Z,51.50
2023-02-11T01:57:31.478Z,40.93
2023-02-11T02:00:14.272Z,43.87
2023-02-11T02:02:45.201Z,49.47
2023-02-11T02:05:18.433Z,49.60
2023-02-11T02:07:52.197Z,44.53
2023-02-11T02:10:21.484Z,47.83
2023-02-11T02:12:48.806Z,60.50
2023-02-11T02:15:26.790Z,55.73
2023-02-11T02:18:08.017Z,43.23
2023-02-11T02:21:04.287Z,42.73
2023-02-11T02:23:34.447Z,44.47
2023-02-11T02:26:20.566Z,43.03
2023-02-11T02:28:57.972Z,46.57
2023-02-11T02:31:25.236Z,50.03
2023-02-11T02:34:08.355Z,47.20
2023-02-11T02:36:38.975Z,44.37
2023-02-11T02:39:32.206Z,48.60
2023-02-11T02:41:59.590Z,48.33
2023-02-11T02:44:27.051Z,46.63
2023-02-11T02:46:54.384Z,44.90
2023-02-11T02:49:21.702Z,46.87
2023-02-11T02:52:07.614Z,52.03
2023-02-11T02:54:50.062Z,49.07
2023-02-11T02:57:30.032Z,49.40
2023-02-11T03:00:00.294Z,44.30
2023-02-11T03:02:46.166Z,43.57
2023-02-11T03:05:28.497Z,49.10
2023-02-11T03:08:24.926Z,40.50
2023-02-11T03:10:52.976Z,48.43
2023-02-11T03:13:22.459Z,44.10
2023-02-11T03:15:52.013Z,42.80
2023-02-11T03:18:20.587Z,47.57
2023-02-11T03:20:49.841Z,47.20
2023-02-11T03:23:26.294Z,44.77
2023-02-11T03:26:02.968Z,49.70
2023-02-11T03:28:35.251Z,47.03
2023-02-11T03:31:11.690Z,44.27
2023-02-11T03:33:58.113Z,46.80
2023-02-11T03:36:31.502Z,54.07
2023-02-11T03:39:00.973Z,46.30
2023-02-11T03:41:28.445Z,53.43
2023-02-11T03:43:57.711Z,43.67
2023-02-11T03:46:28.831Z,44.57
2023-02-11T03:49:04.582Z,46.77
2023-02-11T03:51:33.275Z,46.27
2023-02-11T03:54:02.659Z,49.50
2023-02-11T03:56:31.832Z,51.47
2023-02-11T03:58:59.198Z,53.57
2023-02-11T04:01:26.480Z,46.87
2023-02-11T04:03:53.833Z,52.97
2023-02-11T04:06:21.063Z,48.60
2023-02-11T04:08:48.273Z,44.57
2023-02-11T04:11:15.514Z,46.00
2023-02-11T04:13:42.698Z,60.73
2023-02-11T04:16:09.914Z,51.53
2023-02-11T04:18:37.305Z,51.93
2023-02-11T04:21:04.771Z,56.13
2023-02-11T04:23:32.007Z,47.63
2023-02-11T04:25:59.174Z,50.27
2023-02-11T04:28:29.443Z,51.87
2023-02-11T04:30:57.362Z,43.97
2023-02-11T04:33:24.687Z,50.20
2023-02-11T04:35:52.132Z,55.57
2023-02-11T04:38:19.555Z,50.30
2023-02-11T04:40:46.751Z,52.03
2023-02-11T04:43:13.967Z,46.07
2023-02-11T04:45:41.313Z,61.30
2023-02-11T04:48:08.495Z,57.80
2023-02-11T04:50:35.701Z,64.63
2023-02-11T04:53:02.910Z,52.23
2023-02-11T04:55:30.318Z,48.67
2023-02-11T04:57:57.681Z,51.63
2023-02-11T05:00:24.886Z,50.33
2023-02-11T05:02:52.077Z,52.30
2023-02-11T05:05:19.307Z,50.20
2023-02-11T05:07:46.919Z,54.03
2023-02-11T05:10:14.146Z,55.60
2023-02-11T05:12:41.353Z,55.50
2023-02-11T05:15:08.648Z,54.63
2023-02-11T05:17:35.863Z,54.87
2023-02-11T05:20:03.570Z,52.17
2023-02-11T05:22:30.862Z,52.47
2023-02-11T05:24:58.367Z,59.53
2023-02-11T05:27:25.604Z,60.00
2023-02-11T05:29:53.074Z,52.77
2023-02-11T05:32:20.264Z,49.63
2023-02-11T05:34:47.470Z,55.00
2023-02-11T05:37:14.928Z,54.93
2023-02-11T05:39:42.129Z,54.27
2023-02-11T05:42:09.413Z,52.43
2023-02-11T05:44:36.692Z,54.67
2023-02-11T05:47:04.044Z,57.00
2023-02-11T05:49:31.265Z,51.30
2023-02-11T05:51:58.451Z,61.83
2023-02-11T05:54:25.730Z,56.87
2023-02-11T05:56:53.417Z,57.57
2023-02-11T05:59:20.670Z,53.97
2023-02-11T06:01:47.944Z,57.53
2023-02-11T06:04:15.390Z,60.00
2023-02-11T06:06:42.744Z,60.13
2023-02-11T06:09:11.923Z,62.77
2023-02-11T06:11:39.149Z,61.50
2023-02-11T06:14:06.346Z,57.67
2023-02-11T06:16:33.546Z,60.73
2023-02-11T06:19:00.761Z,63.07
2023-02-11T06:21:40.014Z,56.50
2023-02-11T06:24:10.358Z,60.77
2023-02-11T06:26:37.603Z,63.07
2023-02-11T06:29:04.837Z,61.07
2023-02-11T06:31:32.138Z,61.70
2023-02-11T06:33:59.466Z,60.20
2023-02-11T06:36:26.694Z,67.23
2023-02-11T06:38:53.989Z,55.63
2023-02-11T06:41:21.511Z,69.20
2023-02-11T06:43:49.068Z,57.37
2023-02-11T06:46:16.400Z,65.10
2023-02-11T06:48:44.976Z,64.57
2023-02-11T06:51:13.386Z,59.67
2023-02-11T06:53:42.111Z,68.57
2023-02-11T06:56:10.961Z,68.80
2023-02-11T06:58:38.569Z,60.73
2023-02-11T07:01:06.754Z,63.67
2023-02-11T07:03:36.338Z,67.80
2023-02-11T07:06:05.522Z,64.23
2023-02-11T07:08:36.424Z,61.30
2023-02-11T07:11:09.662Z,67.10
2023-02-11T07:13:37.037Z,63.63
2023-02-11T07:16:05.762Z,68.17
2023-02-11T07:18:33.026Z,61.63
2023-02-11T07:21:00.450Z,62.37
2023-02-11T07:23:27.647Z,66.00
2023-02-11T07:25:54.813Z,65.87
2023-02-11T07:28:22.428Z,64.97
2023-02-11T07:30:49.764Z,73.27
2023-02-11T07:33:16.994Z,63.93
2023-02-11T07:35:44.375Z,68.87
2023-02-11T07:38:14.776Z,61.67
2023-02-11T07:40:41.940Z,65.97
2023-02-11T07:43:09.437Z,67.13
2023-02-11T07:45:39.753Z,57.60
2023-02-11T07:48:07.110Z,65.73
2023-02-11T07:50:34.351Z,59.20
2023-02-11T07:53:01.543Z,70.07
2023-02-11T07:55:29.027Z,67.30
2023-02-11T07:57:56.257Z,61.23
2023-02-11T08:00:23.520Z,60.73
2023-02-11T08:02:51.717Z,63.47
2023-02-11T08:05:19.025Z,61.90
2023-02-11T08:07:46.266Z,65.13
2023-02-11T08:10:13.458Z,69.63
2023-02-11T08:12:40.672Z,71.60
2023-02-11T08:15:08.019Z,61.43
2023-02-11T08:17:36.349Z,59.63
2023-02-11T08:20:04.502Z,62.23
2023-02-11T08:22:35.763Z,65.73
2023-02-11T08:25:03.103Z,68.17
2023-02-11T08:27:30.385Z,69.50
2023-02-11T08:29:59.465Z,65.17
2023-02-11T08:32:26.809Z,66.40
2023-02-11T08:34:54.141Z,65.10
2023-02-11T08:37:21.510Z,66.00
2023-02-11T08:39:49.402Z,58.73
2023-02-11T08:42:16.702Z,62.37
2023-02-11T08:44:44.311Z,56.47
2023-02-11T08:47:12.499Z,56.90
2023-02-11T08:49:41.861Z,66.10
2023-02-11T08:52:09.444Z,64.93
2023-02-11T08:54:37.739Z,62.70
2023-02-11T08:57:05.288Z,67.63
2023-02-11T08:59:32.530Z,61.03
2023-02-11T09:01:59.774Z,61.13
2023-02-11T09:04:26.977Z,63.03
2023-02-11T09:06:54.207Z,64.80
2023-02-11T09:09:21.638Z,66.10
2023-02-11T09:11:48.953Z,62.63
2023-02-11T09:14:18.206Z,60.63
2023-02-11T09:16:45.479Z,64.53
2023-02-11T09:19:12.789Z,66.53
2023-02-11T09:21:40.054Z,65.47
2023-02-11T09:24:07.414Z,65.07
2023-02-11T09:26:35.608Z,63.60
2023-02-11T09:29:04.959Z,64.83
2023-02-11T09:31:33.275Z,66.10
2023-02-11T09:34:04.938Z,61.63
2023-02-11T09:36:37.600Z,63.13
2023-02-11T09:39:05.854Z,66.87
2023-02-11T09:41:51.609Z,57.87
2023-02-11T09:44:20.773Z,70.27
2023-02-11T09:46:50.908Z,63.97
2023-02-11T09:49:20.714Z,65.03
2023-02-11T09:51:55.469Z,57.53
2023-02-11T09:54:27.563Z,59.00
2023-02-11T09:56:54.794Z,60.63
2023-02-11T09:59:22.358Z,61.63
2023-02-11T10:01:58.562Z,61.83
2023-02-11T10:04:25.757Z,68.17
2023-02-11T10:06:54.967Z,61.97
2023-02-11T10:09:45.290Z,58.87
2023-02-11T10:12:15.680Z,59.90
2023-02-11T10:14:51.846Z,59.67
2023-02-11T10:17:37.732Z,53.77
2023-02-11T10:20:23.792Z,60.10
2023-02-11T10:22:56.539Z,58.47
2023-02-11T10:25:23.773Z,62.67
2023-02-11T10:27:51.857Z,62.67
2023-02-11T10:30:22.111Z,54.20
2023-02-11T10:33:12.277Z,60.37
2023-02-11T10:35:39.542Z,61.80
2023-02-11T10:38:06.988Z,57.50
2023-02-11T10:40:34.178Z,65.77
2023-02-11T10:43:08.629Z,67.87
2023-02-11T10:45:54.988Z,62.20
2023-02-11T10:48:39.813Z,63.23
2023-02-11T10:51:16.758Z,57.20
2023-02-11T10:53:44.362Z,60.87
2023-02-11T10:56:13.098Z,68.63
2023-02-11T10:58:48.156Z,60.50
2023-02-11T11:01:24.487Z,61.13
2023-02-11T11:03:52.918Z,57.87
2023-02-11T11:06:30.543Z,68.17
2023-02-11T11:08:57.892Z,57.80
2023-02-11T11:11:25.873Z,58.10
2023-02-11T11:13:53.110Z,56.83
2023-02-11T11:16:23.502Z,53.23
2023-02-11T11:18:52.305Z,53.73
2023-02-11T11:21:22.470Z,55.30
2023-02-11T11:23:51.156Z,55.73
2023-02-11T11:26:18.877Z,53.23
2023-02-11T11:28:54.333Z,57.60
2023-02-11T11:31:23.715Z,53.43
2023-02-11T11:33:52.541Z,54.47
2023-02-11T11:36:24.868Z,70.87
2023-02-11T11:38:56.836Z,53.83
2023-02-11T11:41:28.905Z,53.03
2023-02-11T11:44:04.310Z,54.53
2023-02-11T11:46:37.003Z,61.23
2023-02-11T11:49:08.535Z,51.13
2023-02-11T11:51:37.888Z,53.03
2023-02-11T11:54:07.356Z,55.50
2023-02-11T11:56:35.621Z,49.87
2023-02-11T11:59:04.258Z,53.40
2023-02-11T12:01:46.131Z,52.47
2023-02-11T12:04:28.735Z,51.27
2023-02-11T12:07:14.526Z,48.90
2023-02-11T12:10:14.748Z,51.60
2023-02-11T12:12:50.888Z,55.40
2023-02-11T12:15:20.979Z,52.57
2023-02-11T12:18:01.968Z,51.93
2023-02-11T12:20:40.553Z,44.77
2023-02-11T12:23:16.725Z,40.93
2023-02-11T12:26:01.147Z,47.40
2023-02-11T12:28:31.465Z,43.67
2023-02-11T12:31:04.672Z,45.33
2023-02-11T12:33:32.043Z,46.07
2023-02-11T12:36:19.982Z,47.53
2023-02-11T12:39:00.327Z,41.63
2023-02-11T12:41:46.203Z,47.57
2023-02-11T12:44:19.782Z,49.90
2023-02-11T12:47:08.118Z,42.87
2023-02-11T12:49:54.024Z,45.43
2023-02-11T12:52:34.501Z,44.97
2023-02-11T12:55:04.453Z,45.07
2023-02-11T12:57:35.479Z,47.07
2023-02-11T13:00:08.458Z,43.97
2023-02-11T13:02:41.266Z,42.90
2023-02-11T13:05:22.996Z,44.70
2023-02-11T13:07:51.804Z,44.70
2023-02-11T13:10:25.983Z,40.10
2023-02-11T13:13:13.728Z,43.97
2023-02-11T13:15:41.872Z,42.17
2023-02-11T13:18:12.142Z,37.73
2023-02-11T13:20:46.625Z,39.73
2023-02-11T13:23:16.846Z,42.10
2023-02-11T13:25:49.064Z,40.93
2023-02-11T13:28:21.444Z,42.13
2023-02-11T13:30:57.429Z,41.07
2023-02-11T13:33:35.422Z,37.97
2023-02-11T13:36:04.652Z,41.63
2023-02-11T13:38:32.719Z,37.30
2023-02-11T13:41:03.187Z,36.53
2023-02-11T13:43:31.458Z,39.20
2023-02-11T13:46:12.810Z,41.40
2023-02-11T13:48:46.473Z,33.37
2023-02-11T13:51:15.500Z,40.33
2023-02-11T13:53:48.986Z,34.77
2023-02-11T13:56:32.960Z,33.67
2023-02-11T13:59:02.374Z,26.37
2023-02-11T14:01:44.929Z,35.37
2023-02-11T14:04:39.623Z,31.90
2023-02-11T14:07:51.461Z,29.43
2023-02-11T14:10:37.408Z,32.57
2023-02-11T14:13:20.512Z,32.57
2023-02-11T14:15:47.928Z,29.47
2023-02-11T14:18:34.070Z,36.80
2023-02-11T14:21:15.201Z,29.23
2023-02-11T14:23:42.748Z,32.37
2023-02-11T14:26:30.227Z,33.03
2023-02-11T14:28:57.408Z,32.70
2023-02-11T14:31:27.184Z,34.83
2023-02-11T14:33:54.487Z,32.30
2023-02-11T14:36:21.675Z,34.23
2023-02-11T14:38:48.862Z,31.77
2023-02-11T14:41:21.844Z,33.50
2023-02-11T14:43:53.559Z,33.83
2023-02-11T14:46:21.925Z,30.97
2023-02-11T14:48:50.930Z,32.83
2023-02-11T14:51:23.700Z,30.80
2023-02-11T14:53:51.643Z,31.33
2023-02-11T14:56:21.314Z,31.40
2023-02-11T14:58:49.713Z,32.00
2023-02-11T15:01:32.223Z,34.50
2023-02-11T15:04:01.269Z,35.37
2023-02-11T15:06:34.635Z,29.23
2023-02-11T15:09:04.769Z,30.83
2023-02-11T15:11:35.200Z,33.93
2023-02-11T15:14:08.645Z,35.87
2023-02-11T15:16:40.558Z,31.97
2023-02-11T15:19:08.588Z,32.70
2023-02-11T15:21:36.844Z,38.30
2023-02-11T15:24:08.769Z,35.63
2023-02-11T15:26:35.966Z,30.63
2023-02-11T15:29:03.256Z,28.47
2023-02-11T15:31:33.211Z,32.63
2023-02-11T15:34:07.784Z,27.03
2023-02-11T15:36:36.427Z,30.43
2023-02-11T15:39:17.118Z,27.70
2023-02-11T15:41:44.648Z,28.67
2023-02-11T15:44:28.148Z,32.87
2023-02-11T15:46:55.492Z,23.60
2023-02-11T15:49:23.258Z,29.27
2023-02-11T15:51:50.709Z,30.33
2023-02-11T15:54:22.235Z,31.57
2023-02-11T15:56:55.449Z,35.80
2023-02-11T15:59:25.973Z,32.97
2023-02-11T16:01:53.832Z,26.27
2023-02-11T16:04:29.975Z,26.50
2023-02-11T16:06:57.252Z,25.33
2023-02-11T16:09:24.557Z,24.03
2023-02-11T16:11:51.764Z,31.33
2023-02-11T16:14:39.428Z,27.93
2023-02-11T16:17:06.675Z,26.13
2023-02-11T16:19:34.929Z,27.10
2023-02-11T16:22:08.542Z,23.63
2023-02-11T16:24:37.183Z,29.73
2023-02-11T16:27:05.590Z,26.17
2023-02-11T16:29:35.301Z,26.20
2023-02-11T16:32:14.486Z,26.93
2023-02-11T16:34:41.809Z,24.97
2023-02-11T16:37:09.192Z,22.83
2023-02-11T16:39:36.630Z,23.77
2023-02-11T16:42:07.107Z,23.33
2023-02-11T16:44:34.903Z,26.43
2023-02-11T16:47:06.040Z,24.27
2023-02-11T16:49:42.336Z,22.73
2023-02-11T16:52:14.240Z,28.07
2023-02-11T16:54:41.513Z,23.13
2023-02-11T16:57:16.857Z,23.00
2023-02-11T16:59:44.557Z,31.10
2023-02-11T17:02:23.915Z,25.90
2023-02-11T17:04:51.862Z,26.20
2023-02-11T17:07:19.063Z,22.10
2023-02-11T17:09:46.296Z,21.87
2023-02-11T17:12:13.493Z,24.03
2023-02-11T17:14:40.783Z,30.93
2023-02-11T17:17:08.160Z,50.03
2023-02-11T17:19:35.442Z,37.03
2023-02-11T17:22:02.771Z,44.30
2023-02-11T17:24:30.061Z,31.93
2023-02-11T17:26:57.405Z,39.40
2023-02-11T17:29:25.210Z,29.77
2023-02-11T17:31:52.932Z,30.83
2023-02-11T17:34:20.744Z,22.90
2023-02-11T17:36:48.201Z,30.53
2023-02-11T17:39:15.978Z,25.90
2023-02-11T17:41:43.252Z,20.73
2023-02-11T17:44:12.562Z,20.70
2023-02-11T17:46:39.894Z,22.60
2023-02-11T17:49:07.173Z,22.63
2023-02-11T17:51:38.720Z,20.50
2023-02-11T17:54:07.824Z,20.23
2023-02-11T17:56:35.890Z,19.73
2023-02-11T17:59:03.140Z,19.43
2023-02-11T18:01:31.385Z,28.23
2023-02-11T18:03:58.625Z,20.37
2023-02-11T18:06:26.075Z,21.83
2023-02-11T18:08:56.870Z,25.27
2023-02-11T18:11:25.927Z,20.73
2023-02-11T18:13:54.654Z,20.63
2023-02-11T18:16:22.383Z,20.00
2023-02-11T18:18:49.839Z,19.77
2023-02-11T18:21:18.600Z,20.47
2023-02-11T18:23:45.904Z,18.97
2023-02-11T18:26:14.036Z,22.23
2023-02-11T18:28:43.894Z,19.77
2023-02-11T18:31:13.898Z,18.97
2023-02-11T18:33:41.651Z,21.10
2023-02-11T18:36:10.455Z,26.43
2023-02-11T18:38:37.690Z,18.97
2023-02-11T18:41:05.370Z,17.17
2023-02-11T18:43:34.318Z,19.60
2023-02-11T18:46:02.677Z,25.30
2023-02-11T18:48:30.139Z,21.87
2023-02-11T18:50:57.426Z,24.07
2023-02-11T18:53:25.184Z,24.43
2023-02-11T18:55:53.730Z,21.10
2023-02-11T18:58:21.385Z,20.00
2023-02-11T19:00:49.325Z,17.37
2023-02-11T19:03:16.877Z,18.33
2023-02-11T19:05:44.047Z,20.87
2023-02-11T19:08:11.516Z,23.70
2023-02-11T19:10:42.773Z,23.13
2023-02-11T19:13:10.343Z,21.93
2023-02-11T19:15:44.420Z,22.40
2023-02-11T19:18:12.465Z,19.37
2023-02-11T19:20:40.565Z,22.47
2023-02-11T19:23:07.867Z,20.40
2023-02-11T19:25:35.175Z,22.00
2023-02-11T19:28:03.328Z,21.10
2023-02-11T19:30:30.956Z,23.37
2023-02-11T19:32:58.376Z,29.87
2023-02-11T19:35:25.876Z,27.67
2023-02-11T19:37:53.092Z,28.63
2023-02-11T19:40:21.340Z,22.10
2023-02-11T19:42:48.671Z,27.70
2023-02-11T19:45:15.949Z,25.43
2023-02-11T19:47:43.221Z,24.10
2023-02-11T19:50:10.710Z,28.93
2023-02-11T19:52:38.593Z,17.97
2023-02-11T19:55:06.241Z,18.87
2023-02-11T19:57:33.508Z,20.97
2023-02-11T20:00:01.474Z,18.60
2023-02-11T20:02:29.293Z,22.07
2023-02-11T20:04:56.507Z,18.87
2023-02-11T20:07:23.764Z,18.67
2023-02-11T20:09:53.616Z,24.60
2023-02-11T20:12:20.990Z,19.07
2023-02-11T20:14:48.196Z,21.80
2023-02-11T20:17:15.417Z,24.77
2023-02-11T20:19:42.638Z,19.37
2023-02-11T20:22:09.828Z,19.63
2023-02-11T20:24:36.995Z,25.90
2023-02-11T20:27:04.222Z,19.23
2023-02-11T20:29:31.888Z,20.03
2023-02-11T20:31:59.342Z,21.17
2023-02-11T20:34:26.679Z,22.77
2023-02-11T20:36:54.819Z,22.13
2023-02-11T20:39:23.417Z,24.57
2023-02-11T20:41:51.514Z,18.50
2023-02-11T20:44:19.476Z,18.53
2023-02-11T20:46:46.977Z,21.83
2023-02-11T20:49:18.871Z,17.83
2023-02-11T20:51:46.407Z,17.73
2023-02-11T20:54:15.218Z,19.30
2023-02-11T20:56:42.690Z,16.83
2023-02-11T20:59:10.116Z,21.73
2023-02-11T21:01:42.212Z,18.43
2023-02-11T21:04:13.658Z,20.40
2023-02-11T21:06:45.367Z,29.60
2023-02-11T21:09:14.257Z,33.20
2023-02-11T21:11:41.643Z,21.27
2023-02-11T21:14:09.937Z,26.67
2023-02-11T21:16:37.262Z,25.93
2023-02-11T21:19:04.841Z,23.70
2023-02-11T21:21:32.064Z,23.57
2023-02-11T21:23:59.343Z,27.83
2023-02-11T21:26:26.919Z,21.70
2023-02-11T21:28:55.174Z,24.53
2023-02-11T21:31:22.507Z,23.23
2023-02-11T21:33:50.608Z,24.77
2023-02-11T21:36:18.351Z,25.30
2023-02-11T21:38:45.862Z,26.73
2023-02-11T21:41:13.087Z,20.40
2023-02-11T21:43:40.300Z,22.87
2023-02-11T21:46:11.256Z,24.77
2023-02-11T21:48:38.869Z,19.53
2023-02-11T21:51:10.707Z,19.40
2023-02-11T21:53:37.976Z,19.07
2023-02-11T21:56:05.195Z,16.53
2023-02-11T21:58:32.396Z,20.77
2023-02-11T22:00:59.778Z,16.10
2023-02-11T22:03:27.003Z,20.27
2023-02-11T22:05:54.473Z,18.67
2023-02-11T22:08:21.824Z,15.60
2023-02-11T22:10:48.985Z,16.83
2023-02-11T22:13:16.276Z,16.00
2023-02-11T22:15:43.498Z,17.63
2023-02-11T22:18:10.693Z,17.63
2023-02-11T22:20:37.886Z,17.27
2023-02-11T22:23:05.204Z,19.70
2023-02-11T22:25:32.392Z,14.53
2023-02-11T22:27:59.604Z,20.30
2023-02-11T22:30:26.789Z,18.87
2023-02-11T22:32:54.160Z,15.83
2023-02-11T22:35:21.372Z,24.10
2023-02-11T22:37:48.604Z,20.03
2023-02-11T22:40:16.598Z,22.17
2023-02-11T22:42:43.781Z,13.80
2023-02-11T22:45:11.008Z,21.97
2023-02-11T22:47:38.906Z,16.73
2023-02-11T22:50:06.688Z,21.17
2023-02-11T22:52:35.438Z,18.70
2023-02-11T22:55:02.788Z,22.50
2023-02-11T22:57:30.021Z,27.53
2023-02-11T22:59:57.209Z,22.20
2023-02-11T23:02:24.455Z,21.40
2023-02-11T23:04:51.655Z,22.23
2023-02-11T23:07:18.823Z,27.23
2023-02-11T23:09:46.042Z,22.37
2023-02-11T23:12:13.247Z,31.87
2023-02-11T23:14:40.610Z,26.63
2023-02-11T23:17:07.791Z,26.20
2023-02-11T23:19:34.956Z,22.07
2023-02-11T23:22:03.615Z,23.50
2023-02-11T23:24:32.010Z,15.07
2023-02-11T23:26:59.258Z,24.17
2023-02-11T23:29:26.500Z,21.30
2023-02-11T23:31:54.829Z,21.00
2023-02-11T23:34:25.577Z,27.83
2023-02-11T23:36:53.108Z,22.40
2023-02-11T23:39:20.325Z,27.20
2023-02-11T23:41:47.574Z,21.13
2023-02-11T23:44:14.826Z,20.07
2023-02-11T23:46:42.050Z,22.80
2023-02-11T23:49:09.452Z,20.60
2023-02-11T23:51:36.653Z,18.83
2023-02-11T23:54:03.891Z,21.40
2023-02-11T23:56:31.171Z,25.67
2023-02-11T23:58:59.343Z,24.43
